createdAt,value
2016-11-02T00:00:17.870Z,5.79
2016-11-02T00:01:17.880Z,5.87
2016-11-02T00:02:17.900Z,5.84
2016-11-02T00:03:17.839Z,5.87
2016-11-02T00:04:17.908Z,5.8
2016-11-02T00:05:17.864Z,5.8
2016-11-02T00:06:17.889Z,5.87
2016-11-02T00:07:17.911Z,5.84
2016-11-02T00:08:17.922Z,5.84
2016-11-02T00:09:17.947Z,5.84
2016-11-02T00:10:17.951Z,5.83
2016-11-02T00:11:17.963Z,5.8
2016-11-02T00:12:18.095Z,5.76
2016-11-02T00:13:17.992Z,5.83
2016-11-02T00:14:18.089Z,5.76
2016-11-02T00:15:18.040Z,5.8
2016-11-02T00:16:18.080Z,5.81
2016-11-02T00:17:17.749Z,5.73
2016-11-02T00:18:18.066Z,5.79
2016-11-02T00:19:18.083Z,5.77
2016-11-02T00:20:18.099Z,5.74
2016-11-02T00:21:18.117Z,5.81
2016-11-02T00:22:18.143Z,5.7
2016-11-02T00:23:18.160Z,5.83
2016-11-02T00:24:18.167Z,5.87
2016-11-02T00:25:18.186Z,5.79
2016-11-02T00:26:18.199Z,5.88
2016-11-02T00:27:18.276Z,5.83
2016-11-02T00:28:18.231Z,5.79
2016-11-02T00:29:18.334Z,5.84
2016-11-02T00:30:18.279Z,5.84
2016-11-02T00:31:18.290Z,5.87
2016-11-02T00:32:18.300Z,5.84
2016-11-02T00:33:18.308Z,5.84
2016-11-02T00:34:18.343Z,5.91
2016-11-02T00:35:18.332Z,5.88
2016-11-02T00:36:18.354Z,5.79
2016-11-02T00:37:18.359Z,5.83
2016-11-02T00:38:18.377Z,5.79
2016-11-02T00:39:18.397Z,5.83
2016-11-02T00:40:18.448Z,5.81
2016-11-02T00:41:18.422Z,5.73
2016-11-02T00:42:18.441Z,5.83
2016-11-02T00:43:18.457Z,5.79
2016-11-02T00:44:18.534Z,5.95
2016-11-02T00:45:18.490Z,5.8
2016-11-02T00:46:18.501Z,5.92
2016-11-02T00:47:18.529Z,5.91
2016-11-02T00:48:18.532Z,5.83
2016-11-02T00:49:18.548Z,5.87
2016-11-02T00:50:18.597Z,5.83
2016-11-02T00:51:18.592Z,5.81
2016-11-02T00:52:18.600Z,5.76
2016-11-02T00:53:18.628Z,5.73
2016-11-02T00:54:18.622Z,5.8
2016-11-02T00:55:18.650Z,5.74
2016-11-02T00:56:18.667Z,5.77
2016-11-02T00:57:18.731Z,5.7
2016-11-02T00:58:18.699Z,5.77
2016-11-02T00:59:18.731Z,5.72
2016-11-02T01:00:18.756Z,5.72
2016-11-02T01:01:18.778Z,5.69
2016-11-02T01:02:18.749Z,5.69
2016-11-02T01:03:18.774Z,5.64
2016-11-02T01:04:18.776Z,5.65
2016-11-02T01:05:18.798Z,5.59
2016-11-02T01:06:18.871Z,5.61
2016-11-02T01:07:18.537Z,5.59
2016-11-02T01:08:18.536Z,5.62
2016-11-02T01:09:18.885Z,5.64
2016-11-02T01:10:18.912Z,5.55
2016-11-02T01:11:18.883Z,5.56
2016-11-02T01:12:18.951Z,5.55
2016-11-02T01:13:18.937Z,5.44
2016-11-02T01:14:18.967Z,5.38
2016-11-02T01:15:18.940Z,5.41
2016-11-02T01:16:18.972Z,5.37
2016-11-02T01:17:18.984Z,5.31
2016-11-02T01:18:19.005Z,5.47
2016-11-02T01:19:19.019Z,5.43
2016-11-02T01:20:19.050Z,5.44
2016-11-02T01:21:19.041Z,5.47
2016-11-02T01:22:19.123Z,5.47
2016-11-02T01:23:19.156Z,5.36
2016-11-02T01:24:19.192Z,5.36
2016-11-02T01:25:19.113Z,5.4
2016-11-02T01:26:19.112Z,5.43
2016-11-02T01:27:19.149Z,5.47
2016-11-02T01:28:19.151Z,5.34
2016-11-02T01:29:18.853Z,5.37
2016-11-02T01:30:19.173Z,5.44
2016-11-02T01:31:19.247Z,5.34
2016-11-02T01:32:19.211Z,5.41
2016-11-02T01:33:19.228Z,5.55
2016-11-02T01:34:19.234Z,5.59
2016-11-02T01:35:19.260Z,5.56
2016-11-02T01:36:19.279Z,5.61
2016-11-02T01:37:19.364Z,5.77
2016-11-02T01:38:19.292Z,5.77
2016-11-02T01:39:19.417Z,5.83
2016-11-02T01:40:19.402Z,5.91
2016-11-02T01:41:19.341Z,5.87
2016-11-02T01:42:19.362Z,5.84
2016-11-02T01:43:19.383Z,5.9
2016-11-02T01:44:19.393Z,5.9
2016-11-02T01:45:19.449Z,5.88
2016-11-02T01:46:19.430Z,5.9
2016-11-02T01:47:19.447Z,5.92
2016-11-02T01:48:19.319Z,5.95
2016-11-02T01:49:19.471Z,5.91
2016-11-02T01:50:19.496Z,5.94
2016-11-02T01:51:19.605Z,5.84
2016-11-02T01:52:19.534Z,5.88
2016-11-02T01:53:19.574Z,5.91
2016-11-02T01:54:19.545Z,5.91
2016-11-02T01:55:19.595Z,5.9
2016-11-02T01:56:19.603Z,5.98
2016-11-02T01:57:19.614Z,5.9
2016-11-02T01:58:19.617Z,5.8
2016-11-02T01:59:19.632Z,5.83
2016-11-02T02:00:19.326Z,5.81
2016-11-02T02:01:19.654Z,5.77
2016-11-02T02:02:19.746Z,5.77
2016-11-02T02:03:19.695Z,5.77
2016-11-02T02:04:19.704Z,5.72
2016-11-02T02:05:19.814Z,5.72
2016-11-02T02:06:19.848Z,5.7
2016-11-02T02:07:19.916Z,5.69
2016-11-02T02:08:19.825Z,5.79
2016-11-02T02:09:19.914Z,5.72
2016-11-02T02:10:19.809Z,5.67
2016-11-02T02:11:19.818Z,5.61
2016-11-02T02:12:19.826Z,5.59
2016-11-02T02:13:19.846Z,5.61
2016-11-02T02:14:19.862Z,5.62
2016-11-02T02:15:19.881Z,5.58
2016-11-02T02:16:19.893Z,5.56
2016-11-02T02:17:19.902Z,5.58
2016-11-02T02:18:19.911Z,5.62
2016-11-02T02:19:19.944Z,5.55
2016-11-02T02:20:19.934Z,5.52
2016-11-02T02:21:20.016Z,5.64
2016-11-02T02:22:19.980Z,5.61
2016-11-02T02:23:20.007Z,5.62
2016-11-02T02:24:20.024Z,5.72
2016-11-02T02:25:20.031Z,5.73
2016-11-02T02:26:20.045Z,5.67
2016-11-02T02:27:20.097Z,5.81
2016-11-02T02:28:20.060Z,5.73
2016-11-02T02:29:20.097Z,5.72
2016-11-02T02:30:20.105Z,5.77
2016-11-02T02:31:20.127Z,5.76
2016-11-02T02:32:20.139Z,5.74
2016-11-02T02:33:20.148Z,5.76
2016-11-02T02:34:20.187Z,5.79
2016-11-02T02:35:20.176Z,5.77
2016-11-02T02:36:19.926Z,5.74
2016-11-02T02:37:20.256Z,5.74
2016-11-02T02:38:20.227Z,5.69
2016-11-02T02:39:20.235Z,5.67
2016-11-02T02:40:20.262Z,5.61
2016-11-02T02:41:20.328Z,5.69
2016-11-02T02:42:20.290Z,5.58
2016-11-02T02:43:20.316Z,5.55
2016-11-02T02:44:20.329Z,5.67
2016-11-02T02:45:20.338Z,5.64
2016-11-02T02:46:20.356Z,5.7
2016-11-02T02:47:20.359Z,5.64
2016-11-02T02:48:20.385Z,5.62
2016-11-02T02:49:20.397Z,5.56
2016-11-02T02:50:20.105Z,5.65
2016-11-02T02:51:20.442Z,5.56
2016-11-02T02:52:20.443Z,5.64
2016-11-02T02:53:20.458Z,5.62
2016-11-02T02:54:20.467Z,5.58
2016-11-02T02:55:20.485Z,5.59
2016-11-02T02:56:20.198Z,5.7
2016-11-02T02:57:20.509Z,5.69
2016-11-02T02:58:20.536Z,5.69
2016-11-02T02:59:20.558Z,5.72
2016-11-02T03:00:20.576Z,5.65
2016-11-02T03:01:20.580Z,5.67
2016-11-02T03:02:20.599Z,5.67
2016-11-02T03:03:20.298Z,5.58
2016-11-02T03:04:20.631Z,5.69
2016-11-02T03:05:20.645Z,5.72
2016-11-02T03:06:20.767Z,5.74
2016-11-02T03:07:20.678Z,5.83
2016-11-02T03:08:20.391Z,5.81
2016-11-02T03:09:20.703Z,5.91
2016-11-02T03:10:20.725Z,5.94
2016-11-02T03:11:20.750Z,6.06
2016-11-02T03:12:20.772Z,6.01
2016-11-02T03:13:20.779Z,5.99
2016-11-02T03:14:20.792Z,6.02
2016-11-02T03:15:20.801Z,6.12
2016-11-02T03:16:20.812Z,6.01
2016-11-02T03:17:20.916Z,6.06
2016-11-02T03:18:20.859Z,6.02
2016-11-02T03:19:20.588Z,6.05
2016-11-02T03:20:20.868Z,5.98
2016-11-02T03:21:20.893Z,5.98
2016-11-02T03:22:20.908Z,5.95
2016-11-02T03:23:20.937Z,5.95
2016-11-02T03:24:20.947Z,5.92
2016-11-02T03:25:20.958Z,5.94
2016-11-02T03:26:20.969Z,5.9
2016-11-02T03:27:20.998Z,5.87
2016-11-02T03:28:20.702Z,5.79
2016-11-02T03:29:21.021Z,5.73
2016-11-02T03:30:21.130Z,5.76
2016-11-02T03:31:21.151Z,5.76
2016-11-02T03:32:21.168Z,5.77
2016-11-02T03:33:21.184Z,5.79
2016-11-02T03:34:21.200Z,5.76
2016-11-02T03:35:21.102Z,5.7
2016-11-02T03:36:21.177Z,5.69
2016-11-02T03:37:21.169Z,5.69
2016-11-02T03:38:21.170Z,5.59
2016-11-02T03:39:21.179Z,5.64
2016-11-02T03:40:21.189Z,5.69
2016-11-02T03:41:21.212Z,5.61
2016-11-02T03:42:21.244Z,5.65
2016-11-02T03:43:21.236Z,5.67
2016-11-02T03:44:21.367Z,5.69
2016-11-02T03:45:21.372Z,5.7
2016-11-02T03:46:21.027Z,5.83
2016-11-02T03:47:21.323Z,5.94
2016-11-02T03:48:21.359Z,5.99
2016-11-02T03:49:21.407Z,6.1
2016-11-02T03:50:21.351Z,5.99
2016-11-02T03:51:21.359Z,6.01
2016-11-02T03:52:21.396Z,5.99
2016-11-02T03:53:21.399Z,6.02
2016-11-02T03:54:21.411Z,6.05
2016-11-02T03:55:21.431Z,6.05
2016-11-02T03:56:21.449Z,6.05
2016-11-02T03:57:21.463Z,6.06
2016-11-02T03:58:21.470Z,5.91
2016-11-02T03:59:21.590Z,6.02
2016-11-02T04:00:21.571Z,6.02
2016-11-02T04:01:21.833Z,6.06
2016-11-02T04:02:21.680Z,6.06
2016-11-02T04:03:21.897Z,5.95
2016-11-02T04:04:21.673Z,5.94
2016-11-02T04:05:21.860Z,5.9
2016-11-02T04:06:22.153Z,5.91
2016-11-02T04:07:21.834Z,5.94
2016-11-02T04:08:21.729Z,5.95
2016-11-02T04:09:21.739Z,5.99
2016-11-02T04:10:21.841Z,6.02
2016-11-02T04:11:21.670Z,6.01
2016-11-02T04:12:21.989Z,5.99
2016-11-02T04:13:21.812Z,6.01
2016-11-02T04:14:21.971Z,6.01
2016-11-02T04:15:21.789Z,5.9
2016-11-02T04:16:21.979Z,5.9
2016-11-02T04:17:21.810Z,5.79
2016-11-02T04:18:21.720Z,5.84
2016-11-02T04:19:21.802Z,5.84
2016-11-02T04:20:21.960Z,5.8
2016-11-02T04:21:21.836Z,5.84
2016-11-02T04:22:21.992Z,5.83
2016-11-02T04:23:21.852Z,5.88
2016-11-02T04:24:21.921Z,5.88
2016-11-02T04:25:21.901Z,5.8
2016-11-02T04:26:21.911Z,5.76
2016-11-02T04:27:21.930Z,5.77
2016-11-02T04:28:21.943Z,5.8
2016-11-02T04:29:21.969Z,5.69
2016-11-02T04:30:21.681Z,5.73
2016-11-02T04:31:21.988Z,5.8
2016-11-02T04:32:22.028Z,5.72
2016-11-02T04:33:22.055Z,5.67
2016-11-02T04:34:22.047Z,5.65
2016-11-02T04:35:22.090Z,5.74
2016-11-02T04:36:22.053Z,5.72
2016-11-02T04:37:22.073Z,5.67
2016-11-02T04:38:22.131Z,5.76
2016-11-02T04:39:22.189Z,5.76
2016-11-02T04:40:22.172Z,5.77
2016-11-02T04:41:22.251Z,5.81
2016-11-02T04:42:22.161Z,5.77
2016-11-02T04:43:22.219Z,5.8
2016-11-02T04:44:22.187Z,5.76
2016-11-02T04:45:22.245Z,5.83
2016-11-02T04:46:22.219Z,5.7
2016-11-02T04:47:22.255Z,5.73
2016-11-02T04:48:22.237Z,5.77
2016-11-02T04:49:22.261Z,5.79
2016-11-02T04:50:22.271Z,5.73
2016-11-02T04:51:22.290Z,5.67
2016-11-02T04:52:22.312Z,5.74
2016-11-02T04:53:22.319Z,5.77
2016-11-02T04:54:22.323Z,5.77
2016-11-02T04:55:22.399Z,5.8
2016-11-02T04:56:22.398Z,5.73
2016-11-02T04:57:22.378Z,5.76
2016-11-02T04:58:22.446Z,5.79
2016-11-02T04:59:22.424Z,5.81
2016-11-02T05:00:22.229Z,5.74
2016-11-02T05:01:22.447Z,5.72
2016-11-02T05:02:22.194Z,5.77
2016-11-02T05:03:22.511Z,5.77
2016-11-02T05:04:22.482Z,5.8
2016-11-02T05:05:22.492Z,5.79
2016-11-02T05:06:22.510Z,5.72
2016-11-02T05:07:22.541Z,5.72
2016-11-02T05:08:22.565Z,5.79
2016-11-02T05:09:22.582Z,5.87
2016-11-02T05:10:22.630Z,5.88
2016-11-02T05:11:22.610Z,5.87
2016-11-02T05:12:22.616Z,5.87
2016-11-02T05:13:22.658Z,5.8
2016-11-02T05:14:22.352Z,5.87
2016-11-02T05:15:22.672Z,5.79
2016-11-02T05:16:22.670Z,5.95
2016-11-02T05:17:22.699Z,5.94
2016-11-02T05:18:22.697Z,5.92
2016-11-02T05:19:22.742Z,5.9
2016-11-02T05:20:22.733Z,5.92
2016-11-02T05:21:22.752Z,5.94
2016-11-02T05:22:22.762Z,5.8
2016-11-02T05:23:22.770Z,5.87
2016-11-02T05:24:22.797Z,5.88
2016-11-02T05:25:22.810Z,5.9
2016-11-02T05:26:22.881Z,5.88
2016-11-02T05:27:22.846Z,5.94
2016-11-02T05:28:22.862Z,5.98
2016-11-02T05:29:22.879Z,5.97
2016-11-02T05:30:22.893Z,6.01
2016-11-02T05:31:22.898Z,5.99
2016-11-02T05:32:22.932Z,6.12
2016-11-02T05:33:22.932Z,6.1
2016-11-02T05:34:22.955Z,6.13
2016-11-02T05:35:22.959Z,6.07
2016-11-02T05:36:22.989Z,6.16
2016-11-02T05:37:22.692Z,6.16
2016-11-02T05:38:23.018Z,6.13
2016-11-02T05:39:23.119Z,6.12
2016-11-02T05:40:23.037Z,6.16
2016-11-02T05:41:23.128Z,6.13
2016-11-02T05:42:23.098Z,6.12
2016-11-02T05:43:23.099Z,6.17
2016-11-02T05:44:23.115Z,6.16
2016-11-02T05:45:22.938Z,6.16
2016-11-02T05:46:23.173Z,6.12
2016-11-02T05:47:22.851Z,6.32
2016-11-02T05:48:22.881Z,6.19
2016-11-02T05:49:23.317Z,6.28
2016-11-02T05:50:23.205Z,6.25
2016-11-02T05:51:23.357Z,6.26
2016-11-02T05:52:23.260Z,6.26
2016-11-02T05:53:23.349Z,6.2
2016-11-02T05:54:23.259Z,6.26
2016-11-02T05:55:23.281Z,6.17
2016-11-02T05:56:23.295Z,6.2
2016-11-02T05:57:23.318Z,6.2
2016-11-02T05:58:23.333Z,6.19
2016-11-02T05:59:23.338Z,6.17
2016-11-02T06:00:23.358Z,6.09
2016-11-02T06:01:23.367Z,6.13
2016-11-02T06:02:23.397Z,6.12
2016-11-02T06:03:23.405Z,6.09
2016-11-02T06:04:23.529Z,6.09
2016-11-02T06:05:23.609Z,6.05
2016-11-02T06:06:23.449Z,6.1
2016-11-02T06:07:23.487Z,6.09
2016-11-02T06:08:23.588Z,6.06
2016-11-02T06:09:23.510Z,5.97
2016-11-02T06:10:23.618Z,5.99
2016-11-02T06:11:23.530Z,5.97
2016-11-02T06:12:23.540Z,5.97
2016-11-02T06:13:23.564Z,5.9
2016-11-02T06:14:23.578Z,6.05
2016-11-02T06:15:23.581Z,5.98
2016-11-02T06:16:23.618Z,5.97
2016-11-02T06:17:23.375Z,6.1
2016-11-02T06:18:23.648Z,6.02
2016-11-02T06:19:23.813Z,6.06
2016-11-02T06:20:23.355Z,6.09
2016-11-02T06:21:23.739Z,6.13
2016-11-02T06:22:23.739Z,6.06
2016-11-02T06:23:23.417Z,6.16
2016-11-02T06:24:23.747Z,6.12
2016-11-02T06:25:23.768Z,6.2
2016-11-02T06:26:23.479Z,6.17
2016-11-02T06:27:23.816Z,6.15
2016-11-02T06:28:23.787Z,6.13
2016-11-02T06:29:23.803Z,6.22
2016-11-02T06:30:23.838Z,6.17
2016-11-02T06:31:23.858Z,6.15
2016-11-02T06:32:23.867Z,6.2
2016-11-02T06:33:23.908Z,6.22
2016-11-02T06:34:23.950Z,6.34
2016-11-02T06:35:23.998Z,6.17
2016-11-02T06:36:23.917Z,6.28
2016-11-02T06:37:24.001Z,6.28
2016-11-02T06:38:23.958Z,6.19
2016-11-02T06:39:23.653Z,6.34
2016-11-02T06:40:24.011Z,6.28
2016-11-02T06:41:23.995Z,6.28
2016-11-02T06:42:24.008Z,6.28
2016-11-02T06:43:23.718Z,6.34
2016-11-02T06:44:24.046Z,6.31
2016-11-02T06:45:24.052Z,6.32
2016-11-02T06:46:24.228Z,6.34
2016-11-02T06:47:24.109Z,6.32
2016-11-02T06:48:24.111Z,6.34
2016-11-02T06:49:24.123Z,6.35
2016-11-02T06:50:23.895Z,6.35
2016-11-02T06:51:24.165Z,6.35
2016-11-02T06:52:24.266Z,6.36
2016-11-02T06:53:23.879Z,6.47
2016-11-02T06:54:24.400Z,6.49
2016-11-02T06:55:24.209Z,6.57
2016-11-02T06:56:24.256Z,6.56
2016-11-02T06:57:24.267Z,6.6
2016-11-02T06:58:24.271Z,6.67
2016-11-02T06:59:24.282Z,6.77
2016-11-02T07:00:24.297Z,6.74
2016-11-02T07:01:24.321Z,6.77
2016-11-02T07:02:24.324Z,6.85
2016-11-02T07:03:24.419Z,6.89
2016-11-02T07:04:24.355Z,6.96
2016-11-02T07:05:24.405Z,6.96
2016-11-02T07:06:24.553Z,7.03
2016-11-02T07:07:24.408Z,7.04
2016-11-02T07:08:24.467Z,7.15
2016-11-02T07:09:24.438Z,7.19
2016-11-02T07:10:23.834Z,7.25
2016-11-02T07:11:24.155Z,7.37
2016-11-02T07:12:24.171Z,7.44
2016-11-02T07:13:24.526Z,7.43
2016-11-02T07:14:24.517Z,7.29
2016-11-02T07:15:24.542Z,7.37
2016-11-02T07:16:24.568Z,7.33
2016-11-02T07:17:24.571Z,7.28
2016-11-02T07:18:24.588Z,7.19
2016-11-02T07:19:24.286Z,7.18
2016-11-02T07:20:24.616Z,7.21
2016-11-02T07:21:24.650Z,7.05
2016-11-02T07:22:24.657Z,7.03
2016-11-02T07:23:24.682Z,7.07
2016-11-02T07:24:24.718Z,7.19
2016-11-02T07:25:24.701Z,7.14
2016-11-02T07:26:24.728Z,7.23
2016-11-02T07:27:24.419Z,7.15
2016-11-02T07:28:24.748Z,7.23
2016-11-02T07:29:24.760Z,7.39
2016-11-02T07:30:24.158Z,7.29
2016-11-02T07:31:24.835Z,7.4
2016-11-02T07:32:24.802Z,7.55
2016-11-02T07:33:24.849Z,7.69
2016-11-02T07:34:24.555Z,7.85
2016-11-02T07:35:24.867Z,7.9
2016-11-02T07:36:24.568Z,8.11
2016-11-02T07:37:24.907Z,8.23
2016-11-02T07:38:24.917Z,8.23
2016-11-02T07:39:24.926Z,8.32
2016-11-02T07:40:24.947Z,8.38
2016-11-02T07:41:24.960Z,8.35
2016-11-02T07:42:24.664Z,8.24
2016-11-02T07:43:25.050Z,8.11
2016-11-02T07:44:25.047Z,8.08
2016-11-02T07:45:25.078Z,7.9
2016-11-02T07:46:24.730Z,7.83
2016-11-02T07:47:25.083Z,7.78
2016-11-02T07:48:24.767Z,7.64
2016-11-02T07:49:25.093Z,7.53
2016-11-02T07:50:24.808Z,7.55
2016-11-02T07:51:25.144Z,7.51
2016-11-02T07:52:25.146Z,7.4
2016-11-02T07:53:25.192Z,7.4
2016-11-02T07:54:24.888Z,7.46
2016-11-02T07:55:24.572Z,7.44
2016-11-02T07:56:25.258Z,7.44
2016-11-02T07:57:24.928Z,7.44
2016-11-02T07:58:25.290Z,7.43
2016-11-02T07:59:25.309Z,7.51
2016-11-02T08:00:25.288Z,7.55
2016-11-02T08:01:25.325Z,7.62
2016-11-02T08:02:25.312Z,7.64
2016-11-02T08:03:25.368Z,7.74
2016-11-02T08:04:25.079Z,7.69
2016-11-02T08:05:25.053Z,7.88
2016-11-02T08:06:25.378Z,7.83
2016-11-02T08:07:25.398Z,7.93
2016-11-02T08:08:25.418Z,8.06
2016-11-02T08:09:25.428Z,8.03
2016-11-02T08:10:25.227Z,7.93
2016-11-02T08:11:25.465Z,7.95
2016-11-02T08:12:25.695Z,8.05
2016-11-02T08:13:25.599Z,7.99
2016-11-02T08:14:25.518Z,8.01
2016-11-02T08:15:25.220Z,7.9
2016-11-02T08:16:25.239Z,7.96
2016-11-02T08:17:25.570Z,7.95
2016-11-02T08:18:25.596Z,7.99
2016-11-02T08:19:25.743Z,8.03
2016-11-02T08:20:25.996Z,8.02
2016-11-02T08:21:25.727Z,7.99
2016-11-02T08:22:25.858Z,8.09
2016-11-02T08:23:25.677Z,8.08
2016-11-02T08:24:25.711Z,8.08
2016-11-02T08:25:26.107Z,8.09
2016-11-02T08:26:25.877Z,7.99
2016-11-02T08:27:26.114Z,8.05
2016-11-02T08:28:25.903Z,8.13
2016-11-02T08:29:25.770Z,7.96
2016-11-02T08:30:25.942Z,7.99
2016-11-02T08:31:25.763Z,7.81
2016-11-02T08:32:25.932Z,7.83
2016-11-02T08:33:26.049Z,7.88
2016-11-02T08:34:25.454Z,7.91
2016-11-02T08:35:25.921Z,7.87
2016-11-02T08:36:25.765Z,7.83
2016-11-02T08:37:25.961Z,7.91
2016-11-02T08:38:26.174Z,7.91
2016-11-02T08:39:26.098Z,7.96
2016-11-02T08:40:26.165Z,8.08
2016-11-02T08:41:25.654Z,8.11
2016-11-02T08:42:26.146Z,8.01
2016-11-02T08:43:25.697Z,8.02
2016-11-02T08:44:26.228Z,8.09
2016-11-02T08:45:26.052Z,8.05
2016-11-02T08:46:25.896Z,8.05
2016-11-02T08:47:26.091Z,8.06
2016-11-02T08:48:26.197Z,8.09
2016-11-02T08:49:26.179Z,8.08
2016-11-02T08:50:25.864Z,7.98
2016-11-02T08:51:26.221Z,7.9
2016-11-02T08:52:26.162Z,7.83
2016-11-02T08:53:25.992Z,7.96
2016-11-02T08:54:26.200Z,7.98
2016-11-02T08:55:26.381Z,7.9
2016-11-02T08:56:25.907Z,7.88
2016-11-02T08:57:26.295Z,8.03
2016-11-02T08:58:26.273Z,8.01
2016-11-02T08:59:26.349Z,8.05
2016-11-02T09:00:25.987Z,8.09
2016-11-02T09:01:26.048Z,8.16
2016-11-02T09:02:26.380Z,8.36
2016-11-02T09:03:26.084Z,8.32
2016-11-02T09:04:26.126Z,8.34
2016-11-02T09:05:26.428Z,8.45
2016-11-02T09:06:26.476Z,8.52
2016-11-02T09:07:26.416Z,8.64
2016-11-02T09:08:26.452Z,8.6
2016-11-02T09:09:26.132Z,8.75
2016-11-02T09:10:26.212Z,8.81
2016-11-02T09:11:26.161Z,8.93
2016-11-02T09:12:26.506Z,8.97
2016-11-02T09:13:26.514Z,9.02
2016-11-02T09:14:26.236Z,9.16
2016-11-02T09:15:26.959Z,9.24
2016-11-02T09:16:26.883Z,9.4
2016-11-02T09:17:26.303Z,9.52
2016-11-02T09:18:26.305Z,9.58
2016-11-02T09:19:26.325Z,9.59
2016-11-02T09:20:26.732Z,9.84
2016-11-02T09:21:26.727Z,9.99
2016-11-02T09:22:26.360Z,10.13
2016-11-02T09:23:26.695Z,10.31
2016-11-02T09:24:26.738Z,10.3
2016-11-02T09:25:26.986Z,10.31
2016-11-02T09:26:26.747Z,10.24
2016-11-02T09:27:26.782Z,10.1
2016-11-02T09:28:26.796Z,9.91
2016-11-02T09:29:26.807Z,9.74
2016-11-02T09:30:26.516Z,9.56
2016-11-02T09:31:26.528Z,9.49
2016-11-02T09:32:26.870Z,9.33
2016-11-02T09:33:26.871Z,9.4
2016-11-02T09:34:26.908Z,9.4
2016-11-02T09:35:26.934Z,9.4
2016-11-02T09:36:26.935Z,9.51
2016-11-02T09:37:26.960Z,9.49
2016-11-02T09:38:26.968Z,9.48
2016-11-02T09:39:26.828Z,9.37
2016-11-02T09:40:27.000Z,9.3
2016-11-02T09:41:26.406Z,9.18
2016-11-02T09:42:26.784Z,9.26
2016-11-02T09:43:27.077Z,9.36
2016-11-02T09:44:27.149Z,9.45
2016-11-02T09:45:26.766Z,9.56
2016-11-02T09:46:27.108Z,9.62
2016-11-02T09:47:27.128Z,9.63
2016-11-02T09:48:27.149Z,9.69
2016-11-02T09:49:27.218Z,9.72
2016-11-02T09:50:27.187Z,9.85
2016-11-02T09:51:27.204Z,9.87
2016-11-02T09:52:27.219Z,9.92
2016-11-02T09:53:27.234Z,10.05
2016-11-02T09:54:27.251Z,10.06
2016-11-02T09:55:27.326Z,10.06
2016-11-02T09:56:26.974Z,10.23
2016-11-02T09:57:27.307Z,10.34
2016-11-02T09:58:27.025Z,10.49
2016-11-02T09:59:27.033Z,10.65
2016-11-02T10:00:27.430Z,10.8
2016-11-02T10:01:27.406Z,10.64
2016-11-02T10:02:27.395Z,10.49
2016-11-02T10:03:27.415Z,10.31
2016-11-02T10:04:27.133Z,10.2
2016-11-02T10:05:27.554Z,9.92
2016-11-02T10:06:27.477Z,9.77
2016-11-02T10:07:27.520Z,9.56
2016-11-02T10:08:27.563Z,9.45
2016-11-02T10:09:27.600Z,9.4
2016-11-02T10:10:27.639Z,9.22
2016-11-02T10:11:27.629Z,9.31
2016-11-02T10:12:27.695Z,9.36
2016-11-02T10:13:27.669Z,9.49
2016-11-02T10:14:27.319Z,9.44
2016-11-02T10:15:27.698Z,9.67
2016-11-02T10:16:27.856Z,9.69
2016-11-02T10:17:27.719Z,9.77
2016-11-02T10:18:27.700Z,9.87
2016-11-02T10:19:27.716Z,9.99
2016-11-02T10:20:27.778Z,9.91
2016-11-02T10:21:27.754Z,10.07
2016-11-02T10:22:27.765Z,10.06
2016-11-02T10:23:27.790Z,10.02
2016-11-02T10:24:27.857Z,10.06
2016-11-02T10:25:27.517Z,10.17
2016-11-02T10:26:27.557Z,10.15
2016-11-02T10:27:27.954Z,10.17
2016-11-02T10:28:27.883Z,10.2
2016-11-02T10:29:27.580Z,10.28
2016-11-02T10:30:27.916Z,10.25
2016-11-02T10:31:27.940Z,10.42
2016-11-02T10:32:27.639Z,10.65
2016-11-02T10:33:27.979Z,10.75
2016-11-02T10:34:27.681Z,10.95
2016-11-02T10:35:27.701Z,11.16
2016-11-02T10:36:27.752Z,11.2
2016-11-02T10:37:28.102Z,11.05
2016-11-02T10:38:28.120Z,10.98
2016-11-02T10:39:28.088Z,10.9
2016-11-02T10:40:28.118Z,10.77
2016-11-02T10:41:28.170Z,10.43
2016-11-02T10:42:27.841Z,10.3
2016-11-02T10:43:27.851Z,10.05
2016-11-02T10:44:27.861Z,9.9
2016-11-02T10:45:28.196Z,9.76
2016-11-02T10:46:28.222Z,9.51
2016-11-02T10:47:28.235Z,9.36
2016-11-02T10:48:28.280Z,9.18
2016-11-02T10:49:28.256Z,9.03
2016-11-02T10:50:28.357Z,9.05
2016-11-02T10:51:28.315Z,9.02
2016-11-02T10:52:28.323Z,9.03
2016-11-02T10:53:28.341Z,9.02
2016-11-02T10:54:28.355Z,8.97
2016-11-02T10:55:28.072Z,8.97
2016-11-02T10:56:28.403Z,8.97
2016-11-02T10:57:28.456Z,8.89
2016-11-02T10:58:28.437Z,8.93
2016-11-02T10:59:28.453Z,8.92
2016-11-02T11:00:28.471Z,8.86
2016-11-02T11:01:28.492Z,8.79
2016-11-02T11:02:28.516Z,8.82
2016-11-02T11:03:28.570Z,8.87
2016-11-02T11:04:28.540Z,8.86
2016-11-02T11:05:28.247Z,8.89
2016-11-02T11:06:28.614Z,8.79
2016-11-02T11:07:28.608Z,8.84
2016-11-02T11:08:28.636Z,8.79
2016-11-02T11:09:28.662Z,8.84
2016-11-02T11:10:28.652Z,8.78
2016-11-02T11:11:28.681Z,8.84
2016-11-02T11:12:28.381Z,8.79
2016-11-02T11:13:28.452Z,8.84
2016-11-02T11:14:28.735Z,8.84
2016-11-02T11:15:28.749Z,8.93
2016-11-02T11:16:28.783Z,8.89
2016-11-02T11:17:28.760Z,8.89
2016-11-02T11:18:28.891Z,8.9
2016-11-02T11:19:28.811Z,8.86
2016-11-02T11:20:28.846Z,8.84
2016-11-02T11:21:28.846Z,8.9
2016-11-02T11:22:28.547Z,8.95
2016-11-02T11:23:28.879Z,8.89
2016-11-02T11:24:28.897Z,8.96
2016-11-02T11:25:28.595Z,8.9
2016-11-02T11:26:28.921Z,8.86
2016-11-02T11:27:28.968Z,8.86
2016-11-02T11:28:28.981Z,8.86
2016-11-02T11:29:29.032Z,8.74
2016-11-02T11:30:29.008Z,8.63
2016-11-02T11:31:29.092Z,8.53
2016-11-02T11:32:28.721Z,8.49
2016-11-02T11:33:29.061Z,8.46
2016-11-02T11:34:28.774Z,8.44
2016-11-02T11:35:29.085Z,8.41
2016-11-02T11:36:28.833Z,8.44
2016-11-02T11:37:29.131Z,8.44
2016-11-02T11:38:29.162Z,8.44
2016-11-02T11:39:29.162Z,8.49
2016-11-02T11:40:29.192Z,8.41
2016-11-02T11:41:29.210Z,8.36
2016-11-02T11:42:29.274Z,8.41
2016-11-02T11:43:29.362Z,8.41
2016-11-02T11:44:29.293Z,8.35
2016-11-02T11:45:29.320Z,8.36
2016-11-02T11:46:29.291Z,8.34
2016-11-02T11:47:29.332Z,8.39
2016-11-02T11:48:29.322Z,8.52
2016-11-02T11:49:29.340Z,8.6
2016-11-02T11:50:29.363Z,8.68
2016-11-02T11:51:29.380Z,8.71
2016-11-02T11:52:29.391Z,8.84
2016-11-02T11:53:29.407Z,8.95
2016-11-02T11:54:29.540Z,9
2016-11-02T11:55:29.135Z,9.09
2016-11-02T11:56:29.548Z,9.09
2016-11-02T11:57:29.481Z,9.12
2016-11-02T11:58:29.566Z,9.24
2016-11-02T11:59:29.202Z,9.27
2016-11-02T12:00:29.530Z,9.3
2016-11-02T12:01:29.553Z,9.33
2016-11-02T12:02:29.570Z,9.4
2016-11-02T12:03:29.570Z,9.39
2016-11-02T12:04:29.303Z,9.47
2016-11-02T12:05:29.614Z,9.39
2016-11-02T12:06:29.628Z,9.44
2016-11-02T12:07:29.663Z,9.34
2016-11-02T12:08:29.729Z,9.48
2016-11-02T12:09:29.752Z,9.49
2016-11-02T12:10:29.452Z,9.62
2016-11-02T12:11:29.820Z,9.55
2016-11-02T12:12:29.804Z,9.7
2016-11-02T12:13:29.836Z,9.81
2016-11-02T12:14:29.481Z,9.94
2016-11-02T12:15:29.491Z,10.13
2016-11-02T12:16:29.803Z,10.31
2016-11-02T12:17:29.833Z,10.41
2016-11-02T12:18:29.854Z,10.33
2016-11-02T12:19:29.856Z,10.34
2016-11-02T12:20:29.963Z,10.31
2016-11-02T12:21:30.016Z,10.21
2016-11-02T12:22:30.016Z,10.12
2016-11-02T12:23:29.322Z,10.12
2016-11-02T12:24:29.662Z,9.88
2016-11-02T12:25:30.000Z,9.77
2016-11-02T12:26:30.071Z,9.72
2016-11-02T12:27:29.700Z,9.72
2016-11-02T12:28:30.038Z,9.62
2016-11-02T12:29:30.059Z,9.62
2016-11-02T12:30:30.070Z,9.59
2016-11-02T12:31:30.080Z,9.74
2016-11-02T12:32:30.104Z,9.88
2016-11-02T12:33:30.162Z,10.03
2016-11-02T12:34:30.165Z,10.12
2016-11-02T12:35:29.847Z,10.34
2016-11-02T12:36:30.274Z,10.39
2016-11-02T12:37:30.184Z,10.46
2016-11-02T12:38:29.911Z,10.51
2016-11-02T12:39:29.922Z,10.68
2016-11-02T12:40:30.272Z,10.71
2016-11-02T12:41:29.952Z,10.79
2016-11-02T12:42:30.290Z,10.86
2016-11-02T12:43:30.291Z,11
2016-11-02T12:44:30.006Z,11.12
2016-11-02T12:45:30.031Z,11.23
2016-11-02T12:46:30.362Z,11.19
2016-11-02T12:47:30.402Z,11.34
2016-11-02T12:48:30.392Z,11.41
2016-11-02T12:49:30.530Z,11.41
2016-11-02T12:50:30.461Z,11.4
2016-11-02T12:51:30.464Z,11.35
2016-11-02T12:52:30.175Z,11.19
2016-11-02T12:53:30.498Z,11.12
2016-11-02T12:54:30.503Z,10.95
2016-11-02T12:55:30.524Z,10.84
2016-11-02T12:56:30.560Z,10.98
2016-11-02T12:57:30.574Z,10.84
2016-11-02T12:58:30.291Z,10.8
2016-11-02T12:59:30.662Z,10.75
2016-11-02T13:00:30.312Z,10.71
2016-11-02T13:01:30.642Z,10.55
2016-11-02T13:02:30.351Z,10.3
2016-11-02T13:03:30.678Z,10.3
2016-11-02T13:04:30.703Z,10.33
2016-11-02T13:05:30.401Z,10.42
2016-11-02T13:06:30.748Z,10.64
2016-11-02T13:07:30.766Z,10.77
2016-11-02T13:08:30.784Z,10.95
2016-11-02T13:09:30.793Z,11.02
2016-11-02T13:10:30.824Z,11.07
2016-11-02T13:11:30.847Z,11.16
2016-11-02T13:12:30.861Z,11.13
2016-11-02T13:13:30.892Z,11.13
2016-11-02T13:14:30.912Z,11.1
2016-11-02T13:15:30.969Z,11.05
2016-11-02T13:16:30.618Z,10.94
2016-11-02T13:17:30.993Z,10.89
2016-11-02T13:18:30.352Z,10.76